Time;durP1;ratioP1;P1;durP2;ratioP2;P2;SDS_P1;SDS_P2;PMS_P1;PMS_P2;Temp;Humidity;BMP_temperature;BMP_pressure;BME280_temperature;BME280_humidity;BME280_pressure;Samples;Min_cycle;Max_cycle;Signal;HPM_P1;HPM_P2
2022/05/01 00:00:20;;;;;;;;;20.75;19.00;;;;;;;;5082163;27;46268;-74
2022/05/01 00:02:46;;;;;;;;;20.00;18.00;;;;;;;;5097598;27;45360;-75
2022/05/01 00:05:11;;;;;;;;;16.75;14.25;;;;;;;;5082218;27;45247;-76
2022/05/01 00:07:36;;;;;;;;;15.67;14.67;;;;;;;;5081750;27;45291;-75
2022/05/01 00:10:02;;;;;;;;;20.33;18.67;;;;;;;;5081781;28;45336;-75
2022/05/01 00:12:29;;;;;;;;;18.00;16.00;;;;;;;;5081704;27;45436;-76
2022/05/01 00:14:54;;;;;;;;;19.00;17.00;;;;;;;;5084895;27;45275;-75
2022/05/01 00:17:19;;;;;;;;;20.67;19.00;;;;;;;;5101790;27;45543;-75
2022/05/01 00:19:44;;;;;;;;;21.00;18.00;;;;;;;;5102012;27;45300;-75
2022/05/01 00:22:10;;;;;;;;;20.00;18.33;;;;;;;;5102117;27;45397;-75
2022/05/01 00:24:36;;;;;;;;;16.67;15.00;;;;;;;;5101032;27;45270;-75
2022/05/01 00:27:01;;;;;;;;;15.67;15.67;;;;;;;;5102061;27;45277;-75
2022/05/01 00:29:26;;;;;;;;;16.33;14.67;;;;;;;;5101790;27;45257;-75
2022/05/01 00:31:52;;;;;;;;;18.50;16.75;;;;;;;;5102036;27;45387;-75
2022/05/01 00:37:01;;;;;;;;;17.25;15.00;;;;;;;;5101451;27;45507;-75
2022/05/01 00:39:26;;;;;;;;;13.25;13.25;;;;;;;;5101603;27;45373;-75
2022/05/01 00:41:51;;;;;;;;;20.25;20.25;;;;;;;;5102079;27;45227;-75
2022/05/01 00:44:17;;;;;;;;;16.00;15.75;;;;;;;;5102127;27;45140;-75
2022/05/01 00:46:44;;;;;;;;;16.75;15.25;;;;;;;;5101828;27;45171;-75
2022/05/01 00:49:29;;;;;;;;;17.67;16.67;;;;;;;;5101546;27;45408;-75
2022/05/01 00:51:59;;;;;;;;;21.50;21.50;;;;;;;;5099719;27;45315;-75
2022/05/01 00:54:26;;;;;;;;;18.33;18.33;;;;;;;;5101768;27;45277;-75
2022/05/01 00:56:52;;;;;;;;;18.00;18.00;;;;;;;;5101540;27;45252;-76
2022/05/01 00:59:18;;;;;;;;;16.25;16.00;;;;;;;;5099976;27;47463;-75
2022/05/01 01:01:44;;;;;;;;;17.25;17.25;;;;;;;;5101587;27;45239;-75
2022/05/01 01:04:10;;;;;;;;;23.25;19.00;;;;;;;;5099693;27;45384;-75
2022/05/01 01:06:35;;;;;;;;;17.00;17.00;;;;;;;;5101340;27;45400;-75
2022/05/01 01:09:01;;;;;;;;;16.00;14.00;;;;;;;;5099895;27;47468;-75
2022/05/01 01:11:26;;;;;;;;;16.25;15.25;;;;;;;;5101372;27;45363;-76
2022/05/01 01:13:52;;;;;;;;;16.75;13.25;;;;;;;;5099923;27;45397;-76
2022/05/01 01:16:17;;;;;;;;;14.50;14.50;;;;;;;;5086292;27;45630;-75
2022/05/01 01:18:42;;;;;;;;;21.75;18.25;;;;;;;;5080424;27;45475;-76
2022/05/01 01:21:09;;;;;;;;;19.75;19.75;;;;;;;;5080384;28;45312;-76
2022/05/01 01:23:35;;;;;;;;;22.75;21.75;;;;;;;;5081009;27;45289;-76
2022/05/01 01:26:00;;;;;;;;;18.25;16.50;;;;;;;;5080779;27;45259;-75
2022/05/01 01:28:26;;;;;;;;;20.00;18.00;;;;;;;;5079236;28;47129;-77
2022/05/01 01:33:37;;;;;;;;;22.00;18.50;;;;;;;;5080300;28;45244;-76
2022/05/01 01:36:03;;;;;;;;;21.00;20.50;;;;;;;;5080071;27;45469;-76
2022/05/01 01:38:28;;;;;;;;;20.50;18.00;;;;;;;;5079954;27;45254;-76
2022/05/01 01:40:55;;;;;;;;;21.50;18.00;;;;;;;;5080573;28;45245;-75
2022/05/01 01:43:24;;;;;;;;;21.75;19.00;;;;;;;;5080621;27;45339;-76
2022/05/01 01:45:49;;;;;;;;;21.50;16.25;;;;;;;;5080186;27;45303;-76
2022/05/01 01:48:17;;;;;;;;;23.75;22.25;;;;;;;;5079976;28;45188;-75
2022/05/01 01:50:43;;;;;;;;;17.25;16.75;;;;;;;;5080203;27;45299;-75
2022/05/01 01:53:09;;;;;;;;;19.00;17.75;;;;;;;;5080346;27;45329;-75
2022/05/01 01:55:37;;;;;;;;;22.75;21.75;;;;;;;;5080295;28;45471;-75
2022/05/01 01:58:02;;;;;;;;;19.50;18.75;;;;;;;;5078763;28;47433;-75
2022/05/01 02:00:27;;;;;;;;;19.25;15.75;;;;;;;;5078727;28;45353;-76
2022/05/01 02:02:56;;;;;;;;;22.25;20.50;;;;;;;;5080082;27;45417;-75
2022/05/01 02:05:21;;;;;;;;;20.75;20.75;;;;;;;;5080047;27;45394;-76
2022/05/01 02:07:46;;;;;;;;;21.50;19.50;;;;;;;;5079779;28;45633;-76
2022/05/01 02:10:12;;;;;;;;;20.00;18.25;;;;;;;;5080124;27;45396;-76
2022/05/01 02:12:37;;;;;;;;;19.25;15.75;;;;;;;;5078801;28;45562;-76
2022/05/01 02:15:03;;;;;;;;;18.50;17.75;;;;;;;;5084181;27;45238;-75
2022/05/01 02:17:28;;;;;;;;;20.50;20.50;;;;;;;;5100168;27;47332;-76
2022/05/01 02:19:53;;;;;;;;;18.75;17.50;;;;;;;;5100565;27;45230;-76
2022/05/01 02:22:21;;;;;;;;;19.50;18.00;;;;;;;;5116244;27;45156;-76
2022/05/01 02:24:46;;;;;;;;;22.75;22.00;;;;;;;;5100121;27;45429;-76
2022/05/01 02:27:12;;;;;;;;;22.00;21.50;;;;;;;;5098557;27;48431;-76
2022/05/01 02:29:37;;;;;;;;;24.50;20.75;;;;;;;;5100386;27;45345;-75
2022/05/01 02:32:03;;;;;;;;;23.25;20.25;;;;;;;;5100001;27;45473;-76
2022/05/01 02:34:29;;;;;;;;;18.50;18.25;;;;;;;;5100102;27;45334;-75
2022/05/01 02:36:55;;;;;;;;;18.00;16.75;;;;;;;;5099717;27;45407;-76
2022/05/01 02:39:21;;;;;;;;;21.25;21.00;;;;;;;;5115928;27;45259;-76
2022/05/01 02:41:47;;;;;;;;;22.25;22.25;;;;;;;;5100008;27;45296;-76
2022/05/01 02:44:13;;;;;;;;;26.50;23.75;;;;;;;;5101531;27;45257;-76
2022/05/01 02:46:38;;;;;;;;;26.25;25.50;;;;;;;;5103819;27;45281;-76
2022/05/01 02:49:05;;;;;;;;;21.50;20.00;;;;;;;;5103330;27;45397;-76
2022/05/01 02:51:31;;;;;;;;;25.00;22.75;;;;;;;;5103371;27;45425;-76
2022/05/01 02:53:57;;;;;;;;;25.25;23.75;;;;;;;;5103471;27;45303;-76
2022/05/01 02:56:22;;;;;;;;;24.25;21.25;;;;;;;;5102023;27;48281;-76
2022/05/01 02:58:47;;;;;;;;;21.25;21.00;;;;;;;;5103544;27;45325;-75
2022/05/01 03:01:13;;;;;;;;;26.00;22.75;;;;;;;;5119228;27;45507;-75
2022/05/01 03:03:38;;;;;;;;;24.50;23.75;;;;;;;;5103263;27;45457;-75
2022/05/01 03:06:03;;;;;;;;;19.50;19.25;;;;;;;;5103348;27;46710;-76
2022/05/01 03:08:29;;;;;;;;;22.50;19.25;;;;;;;;5101854;27;45345;-76
2022/05/01 03:10:54;;;;;;;;;25.25;22.25;;;;;;;;5102221;27;45239;-75
2022/05/01 03:13:19;;;;;;;;;22.75;22.25;;;;;;;;5103198;27;45411;-76
2022/05/01 03:15:45;;;;;;;;;24.00;24.00;;;;;;;;5092839;27;46262;-76
2022/05/01 03:23:38;;;;;;;;;24.75;23.00;;;;;;;;5082350;28;45270;-76
2022/05/01 03:26:03;;;;;;;;;28.00;28.00;;;;;;;;5082624;28;45302;-76
2022/05/01 03:28:28;;;;;;;;;28.25;27.25;;;;;;;;5081284;28;45428;-76
2022/05/01 03:30:54;;;;;;;;;27.50;24.50;;;;;;;;5081193;28;46239;-75
2022/05/01 03:33:22;;;;;;;;;24.25;24.25;;;;;;;;5082418;27;45468;-76
2022/05/01 03:35:48;;;;;;;;;22.50;20.75;;;;;;;;5082384;28;45991;-76
2022/05/01 03:38:14;;;;;;;;;25.00;22.25;;;;;;;;5082323;27;45282;-76
2022/05/01 03:40:39;;;;;;;;;28.75;25.50;;;;;;;;5082557;27;45256;-76
2022/05/01 03:43:04;;;;;;;;;22.50;21.25;;;;;;;;5082506;27;45325;-76
2022/05/01 03:45:30;;;;;;;;;27.25;26.25;;;;;;;;5082433;28;45567;-75
2022/05/01 03:47:55;;;;;;;;;26.50;26.00;;;;;;;;5080774;28;45349;-75
2022/05/01 03:50:21;;;;;;;;;27.50;27.00;;;;;;;;5082181;27;45422;-77
2022/05/01 03:52:46;;;;;;;;;23.75;22.25;;;;;;;;5081965;27;45375;-76
2022/05/01 03:55:11;;;;;;;;;27.00;23.75;;;;;;;;5081587;27;45432;-76
2022/05/01 03:57:37;;;;;;;;;25.75;24.25;;;;;;;;5082021;27;45311;-76
2022/05/01 04:00:03;;;;;;;;;22.00;20.75;;;;;;;;5082273;27;45422;-76
2022/05/01 04:02:28;;;;;;;;;26.75;25.50;;;;;;;;5081645;27;45495;-76
2022/05/01 04:04:53;;;;;;;;;31.50;26.50;;;;;;;;5081865;27;45337;-76
2022/05/01 04:07:19;;;;;;;;;26.25;24.50;;;;;;;;5081467;27;45286;-76
2022/05/01 04:09:44;;;;;;;;;20.50;19.00;;;;;;;;5097781;27;45399;-76
2022/05/01 04:12:09;;;;;;;;;28.50;26.50;;;;;;;;5081758;27;45209;-75
2022/05/01 04:14:34;;;;;;;;;23.75;22.75;;;;;;;;5081825;27;46010;-76
2022/05/01 04:17:00;;;;;;;;;27.75;24.25;;;;;;;;5102070;27;45292;-76
2022/05/01 04:19:26;;;;;;;;;24.50;20.50;;;;;;;;5102301;27;45278;-75
2022/05/01 04:21:51;;;;;;;;;26.50;21.25;;;;;;;;5102203;27;45389;-76
2022/05/01 04:24:16;;;;;;;;;24.25;21.75;;;;;;;;5100840;27;47704;-76
2022/05/01 04:26:41;;;;;;;;;29.00;24.50;;;;;;;;5102019;27;45226;-76
2022/05/01 04:31:50;;;;;;;;;24.50;21.75;;;;;;;;5101177;27;45456;-75
2022/05/01 04:34:16;;;;;;;;;22.00;21.75;;;;;;;;5101806;27;45253;-76
2022/05/01 04:36:42;;;;;;;;;26.25;25.00;;;;;;;;5100395;27;46073;-76
2022/05/01 04:39:07;;;;;;;;;24.75;22.25;;;;;;;;5102266;27;45230;-76
2022/05/01 04:41:32;;;;;;;;;24.25;24.25;;;;;;;;5100495;27;45490;-76
2022/05/01 04:43:57;;;;;;;;;26.00;23.00;;;;;;;;5101738;27;46202;-76
2022/05/01 04:46:22;;;;;;;;;30.75;27.75;;;;;;;;5101547;27;45220;-76
2022/05/01 04:48:48;;;;;;;;;26.75;26.00;;;;;;;;5101574;27;45692;-76
2022/05/01 04:51:13;;;;;;;;;27.75;23.25;;;;;;;;5101870;27;45440;-76
2022/05/01 04:53:38;;;;;;;;;26.50;26.50;;;;;;;;5101332;27;46118;-75
2022/05/01 04:58:47;;;;;;;;;26.00;24.75;;;;;;;;5101472;27;45379;-76
2022/05/01 05:01:13;;;;;;;;;26.25;25.25;;;;;;;;5100156;27;46059;-76
2022/05/01 05:03:38;;;;;;;;;24.75;23.75;;;;;;;;5099972;27;47298;-75
2022/05/01 05:06:03;;;;;;;;;23.25;22.25;;;;;;;;5100837;27;45238;-75
2022/05/01 05:11:12;;;;;;;;;27.00;21.25;;;;;;;;5101171;27;45408;-75
2022/05/01 05:13:37;;;;;;;;;22.75;22.75;;;;;;;;5101138;27;45225;-75
2022/05/01 05:16:08;;;;;;;;;22.25;21.50;;;;;;;;5088478;27;45423;-76
2022/05/01 05:18:34;;;;;;;;;24.50;23.25;;;;;;;;5080922;27;45247;-76
2022/05/01 05:20:59;;;;;;;;;19.75;19.00;;;;;;;;5079187;28;46175;-75
2022/05/01 05:23:25;;;;;;;;;22.50;22.50;;;;;;;;5080631;27;46491;-76
2022/05/01 05:25:50;;;;;;;;;27.00;25.75;;;;;;;;5079294;28;45306;-77
2022/05/01 05:28:15;;;;;;;;;25.00;20.25;;;;;;;;5096298;27;45246;-76
2022/05/01 05:30:40;;;;;;;;;30.00;27.25;;;;;;;;5080386;27;45211;-76
2022/05/01 05:33:06;;;;;;;;;23.75;22.25;;;;;;;;5080547;27;45201;-75
2022/05/01 05:35:31;;;;;;;;;26.00;22.50;;;;;;;;5080297;28;45152;-75
2022/05/01 05:37:56;;;;;;;;;32.00;27.50;;;;;;;;5080845;28;45214;-75
2022/05/01 05:40:21;;;;;;;;;29.75;24.25;;;;;;;;5080303;27;45208;-76
2022/05/01 05:42:46;;;;;;;;;23.25;22.50;;;;;;;;5078719;28;46963;-76
2022/05/01 05:45:13;;;;;;;;;26.50;25.75;;;;;;;;5080363;27;45279;-75
2022/05/01 05:47:38;;;;;;;;;30.00;26.75;;;;;;;;5080021;27;45223;-76
2022/05/01 05:50:04;;;;;;;;;26.25;24.75;;;;;;;;5079464;27;45156;-75
2022/05/01 05:52:29;;;;;;;;;26.00;25.50;;;;;;;;5077938;28;46608;-76
2022/05/01 05:54:54;;;;;;;;;26.75;24.50;;;;;;;;5079577;27;45293;-76
2022/05/01 05:57:19;;;;;;;;;22.00;21.75;;;;;;;;5078473;28;45365;-76
2022/05/01 05:59:45;;;;;;;;;28.25;26.25;;;;;;;;5080187;27;45401;-76
2022/05/01 06:02:10;;;;;;;;;25.00;22.25;;;;;;;;5078548;28;47071;-76
2022/05/01 06:04:37;;;;;;;;;25.50;24.00;;;;;;;;5078847;28;45307;-77
2022/05/01 06:07:02;;;;;;;;;28.50;28.50;;;;;;;;5095693;27;45321;-77
2022/05/01 06:09:27;;;;;;;;;32.25;30.00;;;;;;;;5079616;27;45297;-76
2022/05/01 06:11:53;;;;;;;;;28.25;25.75;;;;;;;;5080022;27;46242;-76
2022/05/01 06:14:18;;;;;;;;;31.75;29.25;;;;;;;;5080131;27;45309;-76
2022/05/01 06:16:43;;;;;;;;;31.00;30.00;;;;;;;;5096802;27;45325;-77
2022/05/01 06:19:09;;;;;;;;;29.50;28.75;;;;;;;;5099902;27;45412;-76
2022/05/01 06:21:34;;;;;;;;;30.50;30.00;;;;;;;;5099990;27;46018;-76
2022/05/01 06:23:59;;;;;;;;;30.75;28.75;;;;;;;;5100195;27;45246;-77
2022/05/01 06:26:24;;;;;;;;;30.75;29.00;;;;;;;;5100492;27;45249;-77
2022/05/01 06:28:50;;;;;;;;;29.75;29.50;;;;;;;;5100228;27;45289;-76
2022/05/01 06:31:15;;;;;;;;;31.00;29.75;;;;;;;;5100040;27;45901;-77
2022/05/01 06:33:41;;;;;;;;;32.75;30.25;;;;;;;;5098713;27;45349;-76
2022/05/01 06:36:07;;;;;;;;;31.25;31.00;;;;;;;;5100269;27;45262;-77
2022/05/01 06:38:33;;;;;;;;;34.50;32.25;;;;;;;;5098143;27;46373;-76
2022/05/01 06:40:58;;;;;;;;;34.50;32.00;;;;;;;;5100224;27;45865;-76
2022/05/01 06:43:23;;;;;;;;;34.00;31.50;;;;;;;;5100157;27;45214;-76
2022/05/01 06:45:49;;;;;;;;;30.25;30.25;;;;;;;;5098849;27;45221;-76
2022/05/01 06:48:14;;;;;;;;;37.25;31.75;;;;;;;;5099672;27;45299;-76
2022/05/01 06:50:39;;;;;;;;;30.25;27.75;;;;;;;;5099939;27;46265;-76
2022/05/01 06:53:05;;;;;;;;;34.75;32.00;;;;;;;;5099631;27;45338;-76
2022/05/01 06:55:31;;;;;;;;;33.25;30.25;;;;;;;;5100019;27;45412;-76
2022/05/01 06:57:56;;;;;;;;;35.50;31.50;;;;;;;;5115599;27;45883;-76
2022/05/01 07:00:22;;;;;;;;;32.25;29.25;;;;;;;;5099986;27;45945;-75
2022/05/01 07:02:48;;;;;;;;;33.00;31.00;;;;;;;;5099507;27;45404;-75
2022/05/01 07:05:13;;;;;;;;;37.50;33.25;;;;;;;;5098121;27;45259;-76
2022/05/01 07:07:39;;;;;;;;;41.50;34.25;;;;;;;;5098158;27;45951;-76
2022/05/01 07:10:05;;;;;;;;;37.50;32.25;;;;;;;;5099595;27;46676;-76
2022/05/01 07:12:30;;;;;;;;;42.25;33.00;;;;;;;;5099429;27;45353;-76
2022/05/01 07:14:55;;;;;;;;;33.00;30.75;;;;;;;;5096568;27;45267;-75
2022/05/01 07:17:20;;;;;;;;;39.00;33.00;;;;;;;;5078884;27;45374;-75
2022/05/01 07:19:46;;;;;;;;;35.50;32.75;;;;;;;;5077565;28;48575;-75
2022/05/01 07:22:14;;;;;;;;;40.50;34.75;;;;;;;;5077669;28;45305;-75
2022/05/01 07:24:39;;;;;;;;;36.75;33.00;;;;;;;;5079114;27;45489;-75
2022/05/01 07:27:04;;;;;;;;;37.25;33.75;;;;;;;;5078845;27;45436;-75
2022/05/01 07:29:30;;;;;;;;;36.25;32.50;;;;;;;;5077809;28;47325;-75
2022/05/01 07:31:55;;;;;;;;;35.00;30.75;;;;;;;;5082052;27;45275;-75
2022/05/01 07:34:20;;;;;;;;;37.25;31.75;;;;;;;;5081325;28;45279;-75
2022/05/01 07:36:46;;;;;;;;;40.25;34.25;;;;;;;;5081973;27;45756;-75
2022/05/01 07:39:12;;;;;;;;;38.00;34.50;;;;;;;;5081209;28;47276;-77
2022/05/01 07:41:37;;;;;;;;;39.75;34.75;;;;;;;;5082386;27;45303;-76
2022/05/01 07:44:02;;;;;;;;;41.25;35.75;;;;;;;;5097956;27;45314;-76
2022/05/01 07:46:27;;;;;;;;;38.50;34.25;;;;;;;;5082502;27;45295;-77
2022/05/01 07:48:53;;;;;;;;;45.25;33.25;;;;;;;;5082062;27;45471;-75
2022/05/01 07:51:18;;;;;;;;;36.25;32.00;;;;;;;;5074719;27;45637;-76
2022/05/01 07:53:43;;;;;;;;;39.50;34.00;;;;;;;;5070545;27;45256;-75
2022/05/01 07:56:08;;;;;;;;;41.50;35.25;;;;;;;;5071170;28;45465;-76
2022/05/01 07:58:34;;;;;;;;;33.75;32.00;;;;;;;;5069075;28;46104;-76
2022/05/01 08:01:01;;;;;;;;;40.25;35.00;;;;;;;;5070815;27;45265;-76
2022/05/01 08:06:12;;;;;;;;;44.50;36.00;;;;;;;;5071098;28;46398;-75
2022/05/01 08:08:37;;;;;;;;;36.25;32.00;;;;;;;;5070744;27;45453;-75
2022/05/01 08:11:05;;;;;;;;;41.00;35.25;;;;;;;;5070451;28;45442;-78
2022/05/01 08:13:31;;;;;;;;;34.50;32.00;;;;;;;;5069395;28;45240;-77
2022/05/01 08:15:56;;;;;;;;;38.75;32.75;;;;;;;;5076176;27;45458;-75
2022/05/01 08:21:07;;;;;;;;;38.75;33.00;;;;;;;;5080185;28;45259;-78
2022/05/01 08:23:33;;;;;;;;;36.00;32.00;;;;;;;;5076443;28;45330;-76
2022/05/01 08:26:03;;;;;;;;;41.00;34.25;;;;;;;;5079970;28;46286;-76
2022/05/01 08:28:31;;;;;;;;;37.25;33.00;;;;;;;;5081429;27;46392;-74
2022/05/01 08:30:56;;;;;;;;;35.00;31.00;;;;;;;;5074422;27;45286;-76
2022/05/01 08:33:21;;;;;;;;;41.25;34.00;;;;;;;;5076208;27;45468;-74
2022/05/01 08:35:46;;;;;;;;;34.25;31.00;;;;;;;;5070535;27;45553;-74
2022/05/01 08:38:12;;;;;;;;;33.75;29.00;;;;;;;;5076577;28;47511;-75
2022/05/01 08:40:37;;;;;;;;;35.75;32.50;;;;;;;;5069699;27;45374;-76
2022/05/01 08:43:02;;;;;;;;;38.25;33.00;;;;;;;;5072306;27;45338;-75
2022/05/01 08:45:33;;;;;;;;;34.25;31.25;;;;;;;;5069669;27;45449;-76
2022/05/01 08:48:04;;;;;;;;;39.75;34.00;;;;;;;;5072142;27;45412;-75
2022/05/01 08:50:30;;;;;;;;;30.25;28.00;;;;;;;;5073721;28;45440;-75
2022/05/01 08:53:01;;;;;;;;;36.75;31.50;;;;;;;;5061586;27;45309;-76
2022/05/01 08:55:27;;;;;;;;;31.75;29.75;;;;;;;;5060503;28;45334;-75
2022/05/01 08:57:52;;;;;;;;;37.25;32.00;;;;;;;;5060576;28;46052;-74
2022/05/01 09:00:17;;;;;;;;;34.00;31.00;;;;;;;;5060551;28;45350;-76
2022/05/01 09:02:43;;;;;;;;;31.75;30.25;;;;;;;;5060238;28;45715;-75
2022/05/01 09:05:08;;;;;;;;;33.00;31.25;;;;;;;;5059138;28;46028;-75
2022/05/01 09:07:34;;;;;;;;;30.50;29.50;;;;;;;;5060226;28;45291;-74
2022/05/01 09:09:59;;;;;;;;;35.75;31.50;;;;;;;;5060675;28;45313;-75
2022/05/01 09:15:09;;;;;;;;;31.25;29.25;;;;;;;;5070437;27;45499;-74
2022/05/01 09:17:35;;;;;;;;;27.25;25.75;;;;;;;;5099481;27;48599;-76
2022/05/01 09:20:06;;;;;;;;;34.25;30.50;;;;;;;;5101401;27;45316;-75
2022/05/01 09:22:46;;;;;;;;;32.75;30.00;;;;;;;;5088116;27;45426;-75
2022/05/01 09:25:15;;;;;;;;;34.25;30.25;;;;;;;;5077576;27;45480;-75
2022/05/01 09:27:40;;;;;;;;;37.00;30.00;;;;;;;;5068065;27;47444;-74
2022/05/01 09:30:21;;;;;;;;;35.00;32.50;;;;;;;;5098697;27;45601;-76
2022/05/01 09:32:47;;;;;;;;;31.75;30.00;;;;;;;;5100718;27;45409;-76
2022/05/01 09:35:25;;;;;;;;;32.00;29.25;;;;;;;;5101145;27;45424;-75
2022/05/01 09:38:08;;;;;;;;;36.25;31.00;;;;;;;;5101329;27;45475;-75
2022/05/01 09:40:33;;;;;;;;;31.75;29.25;;;;;;;;5102526;27;45622;-76
2022/05/01 09:42:59;;;;;;;;;34.50;30.25;;;;;;;;5084819;27;45393;-76
2022/05/01 09:45:32;;;;;;;;;29.67;28.67;;;;;;;;5079077;28;47353;-76
2022/05/01 09:47:57;;;;;;;;;28.00;28.00;;;;;;;;5076899;28;48621;-77
2022/05/01 09:50:39;;;;;;;;;33.50;30.00;;;;;;;;5064405;28;45263;-74
2022/05/01 09:53:05;;;;;;;;;31.25;30.00;;;;;;;;5060292;28;45266;-75
2022/05/01 09:55:30;;;;;;;;;29.67;28.00;;;;;;;;5061542;28;45207;-75
2022/05/01 09:58:03;;;;;;;;;34.33;30.33;;;;;;;;5060622;28;47223;-74
2022/05/01 10:00:38;;;;;;;;;36.75;31.25;;;;;;;;5064532;28;45412;-75
2022/05/01 10:03:20;;;;;;;;;35.67;30.00;;;;;;;;5061733;28;45404;-75
2022/05/01 10:05:46;;;;;;;;;29.00;28.00;;;;;;;;5064504;28;45538;-75
2022/05/01 10:08:12;;;;;;;;;27.67;27.33;;;;;;;;5063035;28;45370;-75
2022/05/01 10:10:38;;;;;;;;;28.00;26.33;;;;;;;;5068463;27;45243;-75
2022/05/01 10:13:05;;;;;;;;;28.67;28.00;;;;;;;;5076910;28;45419;-76
2022/05/01 10:15:31;;;;;;;;;25.00;24.33;;;;;;;;5085777;27;45478;-74
2022/05/01 10:17:56;;;;;;;;;23.67;23.67;;;;;;;;5099032;27;45491;-74
2022/05/01 10:20:21;;;;;;;;;25.67;25.67;;;;;;;;5100571;27;45265;-75
2022/05/01 10:22:47;;;;;;;;;26.00;24.33;;;;;;;;5100754;27;45213;-75
2022/05/01 10:25:16;;;;;;;;;27.67;27.67;;;;;;;;5072683;27;45284;-75
2022/05/01 10:28:03;;;;;;;;;28.00;27.33;;;;;;;;5069374;28;45305;-76
2022/05/01 10:33:27;;;;;;;;;29.00;27.00;;;;;;;;5073918;28;45293;-76
2022/05/01 10:36:11;;;;;;;;;29.67;27.00;;;;;;;;5079852;27;45697;-75
2022/05/01 10:38:36;;;;;;;;;31.00;28.00;;;;;;;;5079787;27;46236;-75
2022/05/01 10:41:04;;;;;;;;;27.33;26.00;;;;;;;;5079846;27;45286;-75
2022/05/01 10:43:30;;;;;;;;;28.67;27.00;;;;;;;;5080113;27;45444;-75
2022/05/01 10:45:57;;;;;;;;;29.00;27.67;;;;;;;;5079732;27;45460;-75
2022/05/01 10:48:32;;;;;;;;;26.67;25.67;;;;;;;;5079758;27;46870;-76
2022/05/01 10:51:16;;;;;;;;;32.00;29.67;;;;;;;;5079752;27;45306;-76
2022/05/01 10:53:42;;;;;;;;;28.33;25.00;;;;;;;;5077874;27;45573;-76
2022/05/01 10:56:26;;;;;;;;;24.67;22.33;;;;;;;;5067335;28;45422;-75
2022/05/01 10:59:13;;;;;;;;;28.33;28.33;;;;;;;;5074175;28;46285;-76
2022/05/01 11:01:52;;;;;;;;;25.00;25.00;;;;;;;;5079419;27;45337;-76
2022/05/01 11:04:19;;;;;;;;;23.00;22.00;;;;;;;;5071940;27;45404;-76
2022/05/01 11:06:45;;;;;;;;;25.67;25.67;;;;;;;;5076334;28;46240;-74
2022/05/01 11:09:13;;;;;;;;;27.00;26.67;;;;;;;;5062779;28;46048;-75
2022/05/01 11:11:39;;;;;;;;;28.67;25.00;;;;;;;;5065288;28;46204;-75
2022/05/01 11:14:04;;;;;;;;;28.33;28.33;;;;;;;;5074421;28;45541;-75
2022/05/01 11:16:49;;;;;;;;;24.67;23.67;;;;;;;;5081711;27;48037;-74
2022/05/01 11:19:14;;;;;;;;;25.33;25.33;;;;;;;;5079311;28;45322;-75
2022/05/01 11:21:40;;;;;;;;;26.00;25.67;;;;;;;;5081775;27;45290;-74
2022/05/01 11:24:06;;;;;;;;;24.67;23.67;;;;;;;;5081371;27;45178;-75
2022/05/01 11:26:32;;;;;;;;;25.00;24.00;;;;;;;;5072632;27;45703;-75
2022/05/01 11:29:10;;;;;;;;;30.00;29.00;;;;;;;;5081808;27;45385;-75
2022/05/01 11:31:35;;;;;;;;;26.33;24.33;;;;;;;;5080405;28;45433;-76
2022/05/01 11:34:16;;;;;;;;;20.67;20.67;;;;;;;;5082283;27;45500;-75
2022/05/01 11:36:50;;;;;;;;;25.00;23.00;;;;;;;;5080553;28;47087;-75
2022/05/01 11:39:16;;;;;;;;;26.00;25.33;;;;;;;;5081549;27;45278;-75
2022/05/01 11:41:45;;;;;;;;;26.33;24.67;;;;;;;;5080564;28;45185;-75
2022/05/01 11:44:24;;;;;;;;;22.67;21.67;;;;;;;;5082257;27;45309;-76
2022/05/01 11:46:49;;;;;;;;;23.33;21.67;;;;;;;;5081772;27;45525;-75
2022/05/01 11:49:15;;;;;;;;;24.00;24.00;;;;;;;;5080371;28;48363;-75
2022/05/01 11:51:40;;;;;;;;;23.00;22.33;;;;;;;;5070494;27;45355;-76
2022/05/01 11:54:07;;;;;;;;;23.00;23.00;;;;;;;;5061756;28;45358;-76
2022/05/01 12:04:45;;;;;;;;;21.67;21.33;;;;;;;;5061316;28;45378;-76
2022/05/01 12:07:21;;;;;;;;;24.33;23.00;;;;;;;;5061117;28;45229;-75
2022/05/01 12:09:47;;;;;;;;;21.67;21.33;;;;;;;;5062390;28;46192;-76
2022/05/01 12:12:14;;;;;;;;;18.67;17.67;;;;;;;;5071859;27;45417;-77
2022/05/01 12:14:40;;;;;;;;;22.00;22.00;;;;;;;;5079673;27;45587;-76
2022/05/01 12:17:10;;;;;;;;;20.33;20.33;;;;;;;;5075259;27;45519;-76
2022/05/01 12:19:36;;;;;;;;;21.00;21.00;;;;;;;;5066572;27;45382;-76
2022/05/01 12:22:02;;;;;;;;;20.00;19.00;;;;;;;;5065452;28;45317;-76
2022/05/01 12:24:27;;;;;;;;;18.00;16.00;;;;;;;;5078766;28;45334;-75
2022/05/01 12:26:54;;;;;;;;;21.00;18.33;;;;;;;;5081289;28;45560;-76
2022/05/01 12:29:20;;;;;;;;;20.67;19.33;;;;;;;;5064236;27;45633;-76
2022/05/01 12:31:59;;;;;;;;;21.33;21.00;;;;;;;;5060521;28;45438;-76
2022/05/01 12:34:25;;;;;;;;;22.00;22.00;;;;;;;;5073505;28;45348;-75
2022/05/01 12:36:57;;;;;;;;;24.00;22.00;;;;;;;;5078373;28;45986;-76
2022/05/01 12:39:23;;;;;;;;;23.00;23.00;;;;;;;;5078973;28;47295;-75
2022/05/01 12:45:02;;;;;;;;;18.00;17.33;;;;;;;;5074206;28;45758;-76
2022/05/01 12:47:31;;;;;;;;;19.33;18.67;;;;;;;;5058968;28;45499;-76
2022/05/01 12:49:56;;;;;;;;;23.00;21.67;;;;;;;;5066561;28;47236;-76
2022/05/01 12:52:31;;;;;;;;;19.67;19.33;;;;;;;;5059458;28;45399;-75
2022/05/01 12:55:17;;;;;;;;;20.33;17.33;;;;;;;;5059250;28;45510;-75
2022/05/01 12:57:48;;;;;;;;;19.33;18.67;;;;;;;;5060316;28;46195;-75
2022/05/01 13:00:29;;;;;;;;;21.67;20.33;;;;;;;;5060769;28;46394;-75
2022/05/01 13:02:57;;;;;;;;;17.00;16.33;;;;;;;;5060739;28;45284;-76
2022/05/01 13:05:22;;;;;;;;;20.00;19.33;;;;;;;;5062767;28;45495;-76
2022/05/01 13:07:48;;;;;;;;;19.00;18.33;;;;;;;;5080371;28;45378;-76
2022/05/01 13:10:17;;;;;;;;;17.00;15.67;;;;;;;;5073874;27;46326;-75
2022/05/01 13:12:55;;;;;;;;;19.33;19.00;;;;;;;;5079796;27;45456;-76
2022/05/01 13:15:35;;;;;;;;;20.33;18.00;;;;;;;;5081469;27;45325;-75
2022/05/01 13:18:01;;;;;;;;;19.00;19.00;;;;;;;;5080153;27;45285;-76
2022/05/01 13:20:26;;;;;;;;;17.67;16.33;;;;;;;;5080198;27;45321;-75
2022/05/01 13:22:52;;;;;;;;;18.67;18.00;;;;;;;;5071902;27;45399;-76
2022/05/01 13:25:17;;;;;;;;;18.33;18.33;;;;;;;;5058459;28;45293;-75
2022/05/01 13:27:42;;;;;;;;;19.33;19.33;;;;;;;;5063451;28;45997;-75
2022/05/01 13:30:08;;;;;;;;;18.67;17.67;;;;;;;;5079894;27;45280;-75
2022/05/01 13:32:33;;;;;;;;;18.00;16.67;;;;;;;;5080090;28;45273;-75
2022/05/01 13:34:59;;;;;;;;;18.67;16.67;;;;;;;;5064743;28;45271;-76
2022/05/01 13:37:24;;;;;;;;;18.67;18.67;;;;;;;;5059580;28;45284;-76
2022/05/01 13:45:17;;;;;;;;;19.33;16.33;;;;;;;;5070565;28;45611;-76
2022/05/01 13:47:43;;;;;;;;;19.00;19.00;;;;;;;;5071314;27;45645;-76
2022/05/01 13:50:08;;;;;;;;;16.67;16.33;;;;;;;;5071624;27;46256;-75
2022/05/01 13:52:34;;;;;;;;;19.67;17.33;;;;;;;;5064435;28;46046;-75
2022/05/01 13:55:00;;;;;;;;;17.67;17.67;;;;;;;;5068060;28;45773;-75
2022/05/01 13:57:25;;;;;;;;;20.00;18.33;;;;;;;;5069705;28;45531;-76
2022/05/01 13:59:51;;;;;;;;;20.00;20.00;;;;;;;;5074789;27;46010;-76
2022/05/01 14:02:16;;;;;;;;;21.00;21.00;;;;;;;;5068913;28;45621;-75
2022/05/01 14:04:43;;;;;;;;;16.00;16.00;;;;;;;;5074060;27;45447;-75
2022/05/01 14:07:08;;;;;;;;;17.00;17.00;;;;;;;;5058999;28;45608;-75
2022/05/01 14:09:35;;;;;;;;;19.67;18.00;;;;;;;;5068362;28;46209;-75
2022/05/01 14:12:00;;;;;;;;;18.00;17.00;;;;;;;;5079705;27;45336;-75
2022/05/01 14:14:26;;;;;;;;;0.00;0.00;;;;;;;;5079963;27;45343;-75
2022/05/01 14:16:52;;;;;;;;;16.33;15.67;;;;;;;;5097245;27;46395;-75
2022/05/01 14:19:21;;;;;;;;;19.33;19.33;;;;;;;;5076962;27;47198;-75
2022/05/01 14:21:47;;;;;;;;;18.67;18.33;;;;;;;;5072556;27;45368;-75
2022/05/01 14:24:13;;;;;;;;;16.33;16.33;;;;;;;;5059410;28;45312;-75
2022/05/01 14:26:38;;;;;;;;;16.67;14.00;;;;;;;;5059130;28;45494;-76
2022/05/01 14:29:03;;;;;;;;;17.67;16.67;;;;;;;;5058603;28;46317;-77
2022/05/01 14:31:35;;;;;;;;;16.00;15.67;;;;;;;;5065773;28;45583;-75
2022/05/01 14:34:17;;;;;;;;;18.00;18.00;;;;;;;;5079514;27;45403;-75
2022/05/01 14:36:44;;;;;;;;;20.00;18.67;;;;;;;;5078842;27;45346;-73
2022/05/01 14:39:10;;;;;;;;;20.67;19.67;;;;;;;;5080190;28;47312;-75
2022/05/01 14:41:43;;;;;;;;;16.00;16.00;;;;;;;;5084294;28;45417;-74
2022/05/01 14:44:09;;;;;;;;;16.00;16.00;;;;;;;;5086187;27;45407;-74
2022/05/01 14:46:39;;;;;;;;;19.00;18.33;;;;;;;;5076732;27;45340;-75
2022/05/01 14:49:33;;;;;;;;;18.33;17.00;;;;;;;;5063758;28;46978;-74
2022/05/01 14:51:59;;;;;;;;;15.33;15.33;;;;;;;;5065181;28;45392;-74
2022/05/01 14:54:28;;;;;;;;;16.00;16.00;;;;;;;;5065638;28;45406;-75
2022/05/01 14:56:56;;;;;;;;;15.33;15.33;;;;;;;;5063778;28;46454;-74
2022/05/01 15:07:36;;;;;;;;;15.00;15.00;;;;;;;;5072823;28;45352;-76
2022/05/01 15:10:02;;;;;;;;;14.33;14.33;;;;;;;;5073542;28;45372;-75